Time;durP1;ratioP1;P1;durP2;ratioP2;P2;SDS_P1;SDS_P2;PMS_P1;PMS_P2;Temp;Humidity;BMP_temperature;BMP_pressure;BME280_temperature;BME280_humidity;BME280_pressure;Samples;Min_cycle;Max_cycle;Signal;HPM_P1;HPM_P2
2021/06/28 00:00:21;;;;;;;2.90;2.50;;;;;;;17.72;98.06;100649.84;5205094;28;20033;-79
2021/06/28 00:02:52;;;;;;;3.58;2.90;;;;;;;17.74;98.71;100651.47;5198655;28;20048;-79
2021/06/28 00:05:22;;;;;;;6.82;3.10;;;;;;;17.63;97.46;100650.44;5206705;28;20412;-79
2021/06/28 00:07:53;;;;;;;3.70;2.85;;;;;;;17.73;98.84;100651.53;5201331;28;20079;-79
2021/06/28 00:10:26;;;;;;;4.65;2.90;;;;;;;17.82;97.22;100651.81;5203189;28;20455;-79
2021/06/28 00:12:58;;;;;;;3.42;2.60;;;;;;;17.87;97.08;100651.53;5203034;28;20021;-80
2021/06/28 00:15:37;;;;;;;6.00;2.85;;;;;;;17.70;97.91;100647.31;5202788;28;20057;-79
2021/06/28 00:18:08;;;;;;;3.55;2.78;;;;;;;17.70;98.09;100646.47;5202984;28;20943;-80
2021/06/28 00:20:39;;;;;;;4.00;2.80;;;;;;;17.82;97.53;100645.69;5202065;28;20269;-79
2021/06/28 00:23:10;;;;;;;3.00;2.63;;;;;;;17.88;97.49;100645.28;5203038;28;20033;-79
2021/06/28 00:25:41;;;;;;;4.22;3.10;;;;;;;18.05;95.99;100647.69;5201508;28;20018;-79
2021/06/28 00:28:11;;;;;;;4.53;2.90;;;;;;;17.99;97.56;100642.81;5204655;28;20525;-79
2021/06/28 00:30:44;;;;;;;3.97;2.67;;;;;;;18.33;95.97;100637.88;5201576;28;20025;-78
2021/06/28 00:33:17;;;;;;;4.45;3.00;;;;;;;18.30;96.24;100643.38;5206963;28;20048;-79
2021/06/28 00:35:48;;;;;;;5.22;2.80;;;;;;;18.34;96.69;100646.66;5188212;28;20082;-80
2021/06/28 00:38:18;;;;;;;6.63;3.22;;;;;;;18.32;95.24;100652.06;5208428;28;20065;-79
2021/06/28 00:40:49;;;;;;;6.75;3.40;;;;;;;17.84;97.87;100649.06;5206177;28;20030;-80
2021/06/28 00:43:19;;;;;;;5.32;2.90;;;;;;;18.19;96.53;100650.28;5199892;28;20447;-79
2021/06/28 00:45:50;;;;;;;6.68;2.80;;;;;;;18.19;95.74;100650.28;5201046;28;20026;-80
2021/06/28 00:48:20;;;;;;;6.43;3.00;;;;;;;18.52;94.49;100648.94;5199561;28;20026;-79
2021/06/28 00:50:53;;;;;;;7.38;3.20;;;;;;;18.35;95.35;100656.31;5200779;28;20032;-79
2021/06/28 00:53:25;;;;;;;6.82;2.90;;;;;;;18.41;96.09;100646.16;5203899;28;20033;-79
2021/06/28 00:56:09;;;;;;;7.63;3.20;;;;;;;18.11;98.57;100647.28;5201470;28;20030;-79
2021/06/28 00:58:40;;;;;;;16.25;3.50;;;;;;;18.19;97.24;100650.28;5201001;28;20030;-79
2021/06/28 01:01:12;;;;;;;23.02;3.13;;;;;;;18.13;95.76;100632.16;5203429;28;20113;-79
2021/06/28 01:03:42;;;;;;;18.08;3.50;;;;;;;17.68;100.00;100641.25;5199172;28;20121;-80
2021/06/28 01:06:14;;;;;;;16.33;3.20;;;;;;;17.76;98.37;100631.06;5203283;28;20053;-79
2021/06/28 01:08:45;;;;;;;11.93;3.17;;;;;;;17.70;99.49;100630.59;5200874;28;20368;-80
2021/06/28 01:11:15;;;;;;;10.93;3.00;;;;;;;17.64;100.00;100638.94;5199415;28;20065;-79
2021/06/28 01:13:46;;;;;;;10.82;2.95;;;;;;;17.56;100.00;100633.25;5199141;28;20033;-80
2021/06/28 01:16:17;;;;;;;9.05;3.22;;;;;;;17.64;100.00;100631.00;5198326;28;20018;-79
2021/06/28 01:18:48;;;;;;;7.10;2.90;;;;;;;17.82;99.00;100621.88;5201582;28;20037;-79
2021/06/28 01:21:18;;;;;;;4.90;2.72;;;;;;;17.96;98.63;100625.31;5191350;28;20033;-79
2021/06/28 01:23:49;;;;;;;4.82;2.47;;;;;;;18.07;97.93;100624.63;5202453;28;20036;-78
2021/06/28 01:26:20;;;;;;;5.57;2.97;;;;;;;18.05;97.69;100619.44;5190247;28;20033;-79
2021/06/28 01:28:50;;;;;;;8.52;3.10;;;;;;;18.01;98.30;100620.56;5198816;28;20044;-79
2021/06/28 01:31:20;;;;;;;9.27;3.33;;;;;;;17.86;99.42;100616.28;5199013;28;20081;-78
2021/06/28 01:33:51;;;;;;;9.27;3.30;;;;;;;17.74;99.70;100613.59;5197528;28;20038;-79
2021/06/28 01:36:21;;;;;;;9.85;3.55;;;;;;;17.88;99.48;100611.78;5199833;28;20030;-79
2021/06/28 01:38:53;;;;;;;11.60;3.88;;;;;;;17.85;100.00;100614.59;5197726;28;20025;-79
2021/06/28 01:41:23;;;;;;;9.32;3.70;;;;;;;17.96;99.27;100613.88;5196085;28;20276;-80
2021/06/28 01:43:53;;;;;;;14.02;3.80;;;;;;;17.90;100.00;100616.94;5194832;28;20038;-79
2021/06/28 01:46:23;;;;;;;8.95;3.40;;;;;;;17.87;100.00;100614.50;5196150;28;20037;-79
2021/06/28 01:48:54;;;;;;;7.05;3.30;;;;;;;17.91;98.71;100621.28;5198163;28;20041;-79
2021/06/28 01:51:24;;;;;;;12.07;3.80;;;;;;;17.86;98.77;100610.16;5189784;28;20036;-79
2021/06/28 01:53:55;;;;;;;7.55;3.05;;;;;;;18.02;98.55;100606.41;5200019;28;20029;-79
2021/06/28 01:56:25;;;;;;;5.95;3.40;;;;;;;18.30;96.47;100605.47;5193178;28;20025;-80
2021/06/28 01:58:55;;;;;;;7.45;3.20;;;;;;;18.35;96.40;100604.22;5212670;22;20044;-79
2021/06/28 02:01:27;;;;;;;6.23;3.10;;;;;;;18.52;96.03;100611.88;5203542;28;20060;-79
2021/06/28 02:03:57;;;;;;;10.75;3.25;;;;;;;18.49;95.14;100603.31;5209823;28;20320;-79
2021/06/28 02:06:27;;;;;;;6.13;3.50;;;;;;;18.48;96.81;100598.97;5206507;28;20025;-79
2021/06/28 02:08:57;;;;;;;7.57;3.70;;;;;;;18.25;97.35;100602.25;5202629;28;20037;-79
2021/06/28 02:11:28;;;;;;;9.07;3.45;;;;;;;18.20;97.84;100602.53;5190975;28;20045;-79
2021/06/28 02:13:58;;;;;;;21.03;4.00;;;;;;;18.11;99.24;100600.53;5190269;28;20021;-79
2021/06/28 02:16:28;;;;;;;26.23;4.30;;;;;;;18.08;99.31;100597.22;5192327;28;20304;-79
2021/06/28 02:18:59;;;;;;;36.58;4.60;;;;;;;17.76;100.00;100598.47;5189863;28;20878;-79
2021/06/28 02:21:29;;;;;;;26.42;3.97;;;;;;;17.88;100.00;100605.63;5191461;28;20025;-80
2021/06/28 02:24:00;;;;;;;26.92;3.83;;;;;;;17.83;100.00;100610.38;5190323;28;20061;-79
2021/06/28 02:26:31;;;;;;;24.75;3.88;;;;;;;17.72;100.00;100605.78;5193068;28;20022;-79
2021/06/28 02:29:02;;;;;;;14.35;3.83;;;;;;;17.85;100.00;100608.47;5192603;28;20021;-80
2021/06/28 02:31:33;;;;;;;19.58;4.22;;;;;;;17.85;100.00;100613.75;5193079;28;20549;-79
2021/06/28 02:34:04;;;;;;;14.18;3.70;;;;;;;17.83;100.00;100613.84;5192381;28;20018;-80
2021/06/28 02:36:35;;;;;;;10.98;3.63;;;;;;;17.79;100.00;100622.09;5192121;28;20036;-79
2021/06/28 02:39:07;;;;;;;6.18;3.67;;;;;;;17.84;100.00;100627.91;5192055;28;20438;-79
2021/06/28 02:41:40;;;;;;;8.40;4.13;;;;;;;17.95;100.00;100620.13;5190902;28;20030;-80
2021/06/28 02:44:10;;;;;;;13.48;3.92;;;;;;;17.83;100.00;100629.69;5187314;28;20033;-79
2021/06/28 02:46:41;;;;;;;10.30;3.95;;;;;;;17.84;100.00;100627.91;5193773;28;20025;-79
2021/06/28 02:49:11;;;;;;;12.90;4.63;;;;;;;17.75;100.00;100626.72;5190199;28;20108;-79
2021/06/28 02:51:41;;;;;;;10.73;4.03;;;;;;;17.85;100.00;100634.91;5191265;28;20034;-79
2021/06/28 02:54:11;;;;;;;16.30;4.57;;;;;;;17.86;100.00;100626.03;5193791;28;20022;-79
2021/06/28 02:56:42;;;;;;;10.85;3.85;;;;;;;18.06;100.00;100630.88;5191856;28;20112;-80
2021/06/28 02:59:12;;;;;;;9.93;3.80;;;;;;;18.21;100.00;100624.56;5194426;28;20021;-79
2021/06/28 03:01:43;;;;;;;9.52;4.10;;;;;;;18.32;99.64;100630.88;5195460;28;20025;-80
2021/06/28 03:04:14;;;;;;;7.20;4.03;;;;;;;18.39;99.14;100618.09;5197875;28;20503;-80
2021/06/28 03:06:44;;;;;;;12.00;4.20;;;;;;;18.32;98.80;100612.34;5195267;28;20037;-80
2021/06/28 03:09:14;;;;;;;12.48;4.57;;;;;;;18.32;97.74;100614.16;5198472;28;20398;-79
2021/06/28 03:11:45;;;;;;;7.85;3.90;;;;;;;18.39;98.27;100607.50;5193877;28;20034;-80
2021/06/28 03:14:15;;;;;;;7.30;3.80;;;;;;;18.40;98.85;100606.56;5192352;28;20029;-80
2021/06/28 03:16:45;;;;;;;13.07;4.10;;;;;;;18.32;99.52;100608.88;5198201;28;20625;-79
2021/06/28 03:19:16;;;;;;;9.73;4.00;;;;;;;18.56;97.09;100600.13;5192984;28;20513;-79
2021/06/28 03:21:46;;;;;;;13.57;3.87;;;;;;;18.45;98.19;100597.34;5195857;28;20041;-79
2021/06/28 03:24:16;;;;;;;7.43;3.63;;;;;;;18.50;97.24;100597.88;5196994;28;20374;-79
2021/06/28 03:26:47;;;;;;;13.57;4.20;;;;;;;18.38;98.17;100595.22;5194486;28;20797;-79
2021/06/28 03:29:17;;;;;;;8.23;3.50;;;;;;;18.65;96.85;100590.72;5197837;28;20491;-79
2021/06/28 03:31:47;;;;;;;10.32;3.70;;;;;;;18.73;96.30;100584.78;5193605;28;20025;-79
2021/06/28 03:34:18;;;;;;;10.65;3.47;;;;;;;18.65;98.13;100585.44;5197847;28;20029;-79
2021/06/28 03:36:48;;;;;;;8.38;3.55;;;;;;;18.67;97.80;100580.88;5192973;28;20030;-79
2021/06/28 03:39:18;;;;;;;8.98;3.70;;;;;;;18.75;97.16;100576.75;5196155;28;20040;-80
2021/06/28 03:41:48;;;;;;;8.38;3.60;;;;;;;18.77;97.79;100580.97;5189213;28;20030;-79
2021/06/28 03:44:19;;;;;;;8.57;4.00;;;;;;;18.86;97.15;100583.00;5191125;28;20030;-80
2021/06/28 03:46:49;;;;;;;6.73;3.80;;;;;;;18.92;97.35;100579.06;5197292;28;20276;-80
2021/06/28 03:49:20;;;;;;;9.30;4.05;;;;;;;18.81;97.49;100587.78;5190774;28;20295;-79
2021/06/28 03:51:50;;;;;;;6.55;3.53;;;;;;;18.83;97.90;100579.69;5193827;28;20419;-80
2021/06/28 03:54:20;;;;;;;10.48;3.75;;;;;;;18.73;98.98;100587.44;5196614;28;20511;-80
2021/06/28 03:56:51;;;;;;;7.10;3.50;;;;;;;18.81;97.88;100582.47;5192802;28;20045;-80
2021/06/28 03:59:21;;;;;;;5.55;3.42;;;;;;;18.80;98.50;100583.41;5195751;28;20479;-80
2021/06/28 04:01:51;;;;;;;11.15;4.05;;;;;;;18.84;98.66;100589.34;5192431;28;20037;-80
2021/06/28 04:04:22;;;;;;;6.65;3.85;;;;;;;18.82;98.78;100589.47;5196529;28;20578;-79
2021/06/28 04:06:52;;;;;;;6.43;3.85;;;;;;;19.02;96.88;100585.41;5194494;28;20026;-80
2021/06/28 04:09:23;;;;;;;9.05;3.90;;;;;;;19.04;97.44;100589.66;5196320;28;20025;-80
2021/06/28 04:11:53;;;;;;;12.27;3.60;;;;;;;19.06;98.05;100587.75;5192106;28;20029;-79
2021/06/28 04:14:23;;;;;;;8.85;3.70;;;;;;;19.07;97.74;100581.50;5192572;28;20056;-80
2021/06/28 04:16:55;;;;;;;16.58;4.38;;;;;;;18.72;98.13;100584.88;5196006;28;20387;-80
2021/06/28 04:19:25;;;;;;;17.75;4.15;;;;;;;18.84;97.83;100584.03;5192734;28;20495;-80
2021/06/28 04:21:56;;;;;;;15.40;3.83;;;;;;;18.91;97.88;100588.81;5195768;28;20030;-79
2021/06/28 04:24:27;;;;;;;12.77;3.78;;;;;;;18.99;99.71;100589.13;5193060;28;20029;-80
2021/06/28 04:26:57;;;;;;;21.33;4.28;;;;;;;18.93;99.39;100589.53;5193830;28;20531;-79
2021/06/28 04:29:27;;;;;;;18.20;4.15;;;;;;;19.06;98.99;100595.69;5195609;28;20119;-79
2021/06/28 04:31:58;;;;;;;10.98;3.63;;;;;;;19.14;99.48;100590.69;5191810;28;20030;-80
2021/06/28 04:34:28;;;;;;;17.52;3.88;;;;;;;19.16;100.00;100602.09;5194898;28;20057;-79
2021/06/28 04:36:59;;;;;;;15.82;4.10;;;;;;;19.04;100.00;100597.59;5193595;28;20040;-80
2021/06/28 04:39:29;;;;;;;17.13;3.80;;;;;;;19.14;100.00;100588.03;5195592;28;20095;-80
2021/06/28 04:41:59;;;;;;;13.57;3.78;;;;;;;19.15;100.00;100587.13;5191684;28;20112;-80
2021/06/28 04:44:29;;;;;;;10.27;3.80;;;;;;;19.12;100.00;100587.31;5190862;28;20045;-80
2021/06/28 04:47:00;;;;;;;10.68;4.15;;;;;;;19.22;99.18;100588.41;5196189;28;20340;-80
2021/06/28 04:49:30;;;;;;;8.50;3.78;;;;;;;19.35;99.44;100588.38;5193482;28;20042;-79
2021/06/28 04:52:01;;;;;;;11.60;3.85;;;;;;;19.66;98.39;100593.16;5195680;28;20083;-80
2021/06/28 04:54:31;;;;;;;8.65;3.92;;;;;;;19.66;97.90;100587.88;5194111;28;20071;-80
2021/06/28 04:57:01;;;;;;;7.57;3.60;;;;;;;19.65;99.67;100605.56;5198053;28;20033;-80
2021/06/28 04:59:32;;;;;;;8.90;3.70;;;;;;;19.65;98.38;100602.91;5195131;28;20826;-80
2021/06/28 05:02:02;;;;;;;5.87;3.43;;;;;;;19.75;98.78;100597.81;5195505;28;20395;-80
2021/06/28 05:04:32;;;;;;;6.97;3.50;;;;;;;19.76;98.68;100603.00;5195232;28;20297;-80
2021/06/28 05:07:03;;;;;;;7.45;3.97;;;;;;;19.74;95.59;100596.09;5195364;28;20446;-80
2021/06/28 05:09:33;;;;;;;8.93;4.07;;;;;;;19.86;95.82;100597.88;5195540;28;20412;-80
2021/06/28 05:12:04;;;;;;;8.20;4.00;;;;;;;19.79;96.64;100591.31;5194319;28;20097;-80
2021/06/28 05:14:34;;;;;;;12.80;3.83;;;;;;;19.63;98.75;100599.53;5193791;28;20526;-80
2021/06/28 05:17:06;;;;;;;11.35;3.83;;;;;;;19.84;96.39;100591.81;5195256;28;20040;-80
2021/06/28 05:19:38;;;;;;;8.40;4.00;;;;;;;20.13;95.63;100593.22;5194261;28;20136;-80
2021/06/28 05:22:08;;;;;;;9.02;3.83;;;;;;;20.17;97.21;100595.53;5193739;28;20144;-80
2021/06/28 05:24:39;;;;;;;9.32;3.58;;;;;;;20.13;98.90;100598.53;5194854;28;20062;-80
2021/06/28 05:27:09;;;;;;;8.77;4.18;;;;;;;20.12;98.21;100589.72;5194639;28;20036;-80
2021/06/28 05:29:40;;;;;;;7.43;3.67;;;;;;;20.18;96.04;100591.94;5194227;28;20553;-80
2021/06/28 05:32:10;;;;;;;6.13;3.88;;;;;;;20.26;97.27;100605.47;5196661;28;20071;-80
2021/06/28 05:34:40;;;;;;;9.30;4.18;;;;;;;20.63;99.34;100596.41;5194692;28;20045;-80
2021/06/28 05:37:10;;;;;;;7.60;4.10;;;;;;;21.61;93.63;100594.78;5193738;28;20587;-81
2021/06/28 05:39:41;;;;;;;8.02;3.90;;;;;;;21.46;93.53;100598.69;5195295;28;20037;-81
2021/06/28 05:42:11;;;;;;;5.82;3.90;;;;;;;21.30;94.02;100600.84;5193747;28;20022;-80
2021/06/28 05:44:42;;;;;;;11.02;3.78;;;;;;;21.34;90.73;100607.63;5194451;28;20026;-80
2021/06/28 05:47:13;;;;;;;4.72;3.38;;;;;;;21.10;93.86;100605.06;5193892;28;20104;-80
2021/06/28 05:49:46;;;;;;;9.93;4.38;;;;;;;21.01;97.45;100594.31;5193650;28;20022;-80
2021/06/28 05:52:20;;;;;;;6.93;4.18;;;;;;;20.87;98.45;100598.06;5200493;28;20574;-81
2021/06/28 05:54:51;;;;;;;8.30;3.88;;;;;;;21.13;96.84;100598.69;5188668;28;20028;-80
2021/06/28 05:57:24;;;;;;;5.57;3.65;;;;;;;21.13;97.39;100601.34;5192524;28;20030;-80
2021/06/28 05:59:54;;;;;;;6.95;4.25;;;;;;;20.97;97.89;100603.50;5193596;28;20389;-81
2021/06/28 06:02:25;;;;;;;6.67;3.67;;;;;;;21.15;97.60;100600.25;5192763;28;20041;-81
2021/06/28 06:04:55;;;;;;;6.07;4.20;;;;;;;21.45;94.45;100594.31;5194691;28;20719;-80
2021/06/28 06:07:25;;;;;;;7.43;4.47;;;;;;;21.29;95.80;100593.84;5192372;28;20033;-80
2021/06/28 06:09:56;;;;;;;6.07;3.97;;;;;;;21.86;94.01;100595.38;5196796;28;20053;-81
2021/06/28 06:12:26;;;;;;;6.47;3.90;;;;;;;22.21;92.22;100603.97;5192808;28;20284;-81
2021/06/28 06:14:56;;;;;;;7.95;4.00;;;;;;;22.52;89.95;100603.13;5194152;28;20036;-81
2021/06/28 06:17:27;;;;;;;5.25;3.90;;;;;;;22.95;87.48;100602.00;5194059;28;20037;-81
2021/06/28 06:19:58;;;;;;;7.70;3.75;;;;;;;24.10;81.78;100601.47;5192358;28;20037;-81
2021/06/28 06:22:29;;;;;;;5.97;4.10;;;;;;;24.86;79.47;100613.00;5196689;28;20109;-81
2021/06/28 06:24:59;;;;;;;7.95;4.18;;;;;;;24.99;80.48;100620.72;5194851;28;20093;-81
2021/06/28 06:27:30;;;;;;;7.38;3.75;;;;;;;25.07;78.39;100607.44;5196899;28;20030;-81
2021/06/28 06:30:01;;;;;;;4.82;3.38;;;;;;;24.92;76.36;100606.22;5195802;28;20156;-81
2021/06/28 06:32:31;;;;;;;6.63;3.90;;;;;;;24.27;76.63;100598.13;5197765;28;20037;-81
2021/06/28 06:35:03;;;;;;;6.22;3.92;;;;;;;24.09;79.15;100599.81;5200667;28;20025;-81
2021/06/28 06:37:33;;;;;;;5.95;4.28;;;;;;;23.90;82.61;100606.94;5199584;28;20030;-81
2021/06/28 06:40:05;;;;;;;7.65;3.78;;;;;;;24.13;79.96;100598.53;5200253;28;20030;-80
2021/06/28 06:42:35;;;;;;;5.93;4.20;;;;;;;24.40;77.32;100592.50;5197358;28;20545;-81
2021/06/28 06:45:07;;;;;;;5.03;4.07;;;;;;;24.40;78.20;100592.50;5197237;28;20033;-80
2021/06/28 06:47:37;;;;;;;7.90;3.78;;;;;;;24.20;78.78;100596.16;5199592;28;20026;-80
2021/06/28 06:50:10;;;;;;;7.47;3.40;;;;;;;24.60;78.08;100592.38;5195507;28;20025;-80
2021/06/28 06:52:41;;;;;;;4.72;3.60;;;;;;;24.55;78.91;100591.94;5200181;28;20358;-80
2021/06/28 06:55:11;;;;;;;5.63;3.47;;;;;;;24.52;79.35;100602.91;5198791;28;20029;-80
2021/06/28 06:57:43;;;;;;;4.38;3.70;;;;;;;24.39;80.19;100596.97;5197673;28;20025;-80
2021/06/28 07:00:16;;;;;;;5.22;3.70;;;;;;;24.30;79.83;100605.00;5194745;28;20032;-80
2021/06/28 07:02:48;;;;;;;5.95;3.67;;;;;;;24.51;80.77;100600.34;5201717;28;20053;-81
2021/06/28 07:05:18;;;;;;;4.78;3.65;;;;;;;24.77;81.66;100605.00;5197843;28;20021;-81
2021/06/28 07:07:49;;;;;;;6.10;3.78;;;;;;;24.10;83.41;100612.16;5192392;28;20029;-80
2021/06/28 07:10:19;;;;;;;4.95;3.70;;;;;;;24.54;83.57;100608.94;5196870;28;20037;-81
2021/06/28 07:12:50;;;;;;;4.63;3.92;;;;;;;25.40;81.19;100606.94;5196663;28;20021;-82
2021/06/28 07:15:21;;;;;;;5.82;3.70;;;;;;;25.48;78.04;100613.22;5196212;28;20121;-82
2021/06/28 07:17:51;;;;;;;5.22;3.60;;;;;;;25.53;80.32;100613.66;5196983;28;20017;-82
2021/06/28 07:20:22;;;;;;;4.93;3.17;;;;;;;26.34;75.06;100607.38;5193969;28;20026;-82
2021/06/28 07:22:53;;;;;;;5.90;3.20;;;;;;;26.45;69.90;100607.13;5197323;28;20284;-80
2021/06/28 07:25:24;;;;;;;4.97;2.92;;;;;;;28.52;66.01;100599.28;5198125;28;20022;-80
2021/06/28 07:27:54;;;;;;;7.78;3.10;;;;;;;29.09;61.09;100601.78;5195105;28;20088;-80
2021/06/28 07:30:25;;;;;;;3.73;2.90;;;;;;;29.29;60.31;100597.69;5199601;28;20029;-80
2021/06/28 07:32:55;;;;;;;6.75;2.60;;;;;;;29.25;61.38;100599.88;5198475;28;20323;-80
2021/06/28 07:35:26;;;;;;;4.28;3.05;;;;;;;28.55;62.74;100605.19;5198114;28;20037;-80
2021/06/28 07:37:56;;;;;;;4.25;2.67;;;;;;;29.28;62.61;100601.41;5198659;28;20040;-80
2021/06/28 07:40:26;;;;;;;4.23;2.60;;;;;;;29.18;61.12;100592.66;5200507;28;20030;-80
2021/06/28 07:42:57;;;;;;;3.60;2.50;;;;;;;29.69;60.57;100594.84;5195016;28;20288;-79
2021/06/28 07:45:28;;;;;;;3.92;2.67;;;;;;;29.75;58.83;100603.06;5196698;28;20300;-79
2021/06/28 07:47:58;;;;;;;3.05;2.42;;;;;;;29.78;59.23;100588.41;5197438;28;20025;-80
2021/06/28 07:50:29;;;;;;;5.38;2.67;;;;;;;30.59;56.26;100590.44;5195206;28;20108;-80
2021/06/28 07:53:00;;;;;;;4.10;2.72;;;;;;;30.44;56.26;100586.00;5197462;28;20026;-80
2021/06/28 07:55:30;;;;;;;3.70;2.45;;;;;;;30.26;56.64;100582.75;5199299;28;20037;-80
2021/06/28 07:58:00;;;;;;;5.13;2.60;;;;;;;30.41;57.83;100580.97;5198132;28;20034;-80
2021/06/28 08:00:31;;;;;;;4.37;2.50;;;;;;;31.68;53.36;100573.41;5214027;22;20308;-79
2021/06/28 08:03:04;;;;;;;3.30;2.30;;;;;;;31.53;53.50;100568.00;5212610;28;20661;-79
2021/06/28 08:05:36;;;;;;;2.85;2.20;;;;;;;30.54;55.15;100570.38;5216947;28;20114;-78
2021/06/28 08:08:06;;;;;;;5.00;2.45;;;;;;;29.59;50.67;100572.69;5216484;28;20032;-78
2021/06/28 08:10:37;;;;;;;3.80;2.10;;;;;;;30.55;54.06;100566.63;5195314;28;20029;-78
2021/06/28 08:13:07;;;;;;;3.17;2.15;;;;;;;31.05;53.11;100562.31;5192424;28;20283;-78
2021/06/28 08:15:37;;;;;;;3.83;2.37;;;;;;;30.51;53.79;100559.94;5194951;28;20041;-79
2021/06/28 08:18:07;;;;;;;5.32;2.20;;;;;;;30.89;51.61;100565.19;5193940;28;20029;-78
2021/06/28 08:20:38;;;;;;;3.80;1.77;;;;;;;31.85;51.69;100554.06;5194032;28;20148;-78
2021/06/28 08:23:10;;;;;;;3.17;1.97;;;;;;;32.02;50.57;100563.63;5195628;28;20029;-78
2021/06/28 08:25:40;;;;;;;2.95;2.10;;;;;;;31.76;50.40;100555.22;5191738;28;20610;-78
2021/06/28 08:28:12;;;;;;;4.17;2.17;;;;;;;32.29;50.98;100552.06;5192723;28;20112;-78
2021/06/28 08:30:42;;;;;;;3.50;2.38;;;;;;;32.26;50.03;100551.59;5194047;28;20273;-78
2021/06/28 08:33:13;;;;;;;3.03;2.60;;;;;;;31.81;51.95;100547.38;5197305;28;20028;-78
2021/06/28 08:35:43;;;;;;;3.90;2.83;;;;;;;31.81;51.63;100552.78;5192470;28;20273;-78
2021/06/28 08:38:14;;;;;;;7.13;3.10;;;;;;;32.13;52.36;100546.88;5197493;28;20029;-78
2021/06/28 08:40:46;;;;;;;4.80;3.00;;;;;;;32.40;49.91;100543.41;5193315;28;20037;-77
2021/06/28 08:43:16;;;;;;;4.43;2.80;;;;;;;31.94;52.59;100538.56;5192061;28;20510;-78
2021/06/28 08:45:47;;;;;;;5.68;3.03;;;;;;;32.29;52.54;100535.81;5194877;28;20029;-77
2021/06/28 08:48:17;;;;;;;6.95;3.40;;;;;;;32.59;51.13;100541.91;5192008;28;20064;-78
2021/06/28 08:50:48;;;;;;;3.85;3.08;;;;;;;31.51;51.09;100544.91;5196585;28;20032;-78
2021/06/28 08:53:21;;;;;;;4.70;3.30;;;;;;;31.53;52.25;100546.38;5189816;28;20054;-78
2021/06/28 08:55:52;;;;;;;5.43;3.42;;;;;;;31.81;53.32;100550.06;5194900;28;20021;-77
2021/06/28 08:58:22;;;;;;;4.93;3.60;;;;;;;31.70;52.96;100541.63;5193023;28;20060;-77
2021/06/28 09:00:53;;;;;;;8.07;3.20;;;;;;;32.48;52.58;100540.56;5196249;28;20464;-78
2021/06/28 09:03:23;;;;;;;4.43;3.30;;;;;;;32.43;50.83;100548.47;5194023;28;20324;-78
2021/06/28 09:06:00;;;;;;;5.10;3.47;;;;;;;32.71;51.08;100549.31;5195000;28;20102;-78
2021/06/28 09:08:31;;;;;;;4.97;3.30;;;;;;;32.71;50.42;100548.50;5194108;28;21019;-78
2021/06/28 09:11:03;;;;;;;3.75;3.10;;;;;;;33.04;51.49;100547.69;5188714;28;20096;-78
2021/06/28 09:13:39;;;;;;;6.80;3.22;;;;;;;33.23;51.91;100546.97;5193433;28;20022;-78
2021/06/28 09:16:16;;;;;;;5.45;3.78;;;;;;;32.02;51.28;100558.19;5192149;28;20033;-78
2021/06/28 09:18:51;;;;;;;4.68;3.20;;;;;;;32.05;50.78;100559.69;5195765;28;20025;-78
2021/06/28 09:21:41;;;;;;;4.55;3.20;;;;;;;33.10;51.29;100553.13;5197434;28;20064;-78
2021/06/28 09:24:36;;;;;;;6.53;3.50;;;;;;;32.33;50.50;100553.34;5200199;28;20080;-78
2021/06/28 09:27:09;;;;;;;5.75;3.55;;;;;;;32.64;50.18;100551.13;5198133;28;20561;-78
2021/06/28 09:29:43;;;;;;;5.95;3.40;;;;;;;32.35;52.11;100553.16;5196722;28;20533;-79
2021/06/28 09:32:15;;;;;;;7.20;3.28;;;;;;;32.11;51.04;100554.34;5199637;28;20025;-78
2021/06/28 09:34:48;;;;;;;3.78;3.20;;;;;;;32.78;51.79;100554.78;5194708;28;20045;-79
2021/06/28 09:37:24;;;;;;;4.57;3.42;;;;;;;32.36;50.66;100558.38;5190317;28;20096;-79
2021/06/28 09:39:57;;;;;;;5.75;3.33;;;;;;;32.08;53.64;100559.31;5197492;28;20032;-79
2021/06/28 09:42:29;;;;;;;5.38;3.33;;;;;;;32.76;51.02;100557.69;5197015;28;20034;-78
2021/06/28 09:45:28;;;;;;;8.20;3.30;;;;;;;32.25;51.51;100567.00;5195303;28;20053;-78
2021/06/28 09:47:58;;;;;;;5.70;3.30;;;;;;;33.19;51.76;100565.53;5190870;28;20045;-79
2021/06/28 09:50:29;;;;;;;3.10;2.80;;;;;;;33.46;50.94;100558.38;5194455;28;20029;-79
2021/06/28 09:53:02;;;;;;;4.63;2.97;;;;;;;32.94;50.74;100558.06;5197213;28;20030;-78
2021/06/28 09:55:35;;;;;;;3.88;2.90;;;;;;;32.45;52.79;100551.81;5196780;28;20272;-78
2021/06/28 09:58:14;;;;;;;6.07;3.10;;;;;;;32.35;53.31;100548.56;5197611;28;20026;-78
2021/06/28 10:00:47;;;;;;;3.78;3.10;;;;;;;32.17;52.69;100558.13;5194665;28;20040;-78
2021/06/28 10:03:49;;;;;;;5.15;3.20;;;;;;;32.13;53.44;100551.44;5196877;28;20100;-79
2021/06/28 10:09:00;;;;;;;4.53;3.17;;;;;;;32.40;54.08;100553.41;5196771;28;20036;-78
2021/06/28 10:11:30;;;;;;;4.18;3.28;;;;;;;31.85;54.66;100545.94;5192646;28;20029;-78
2021/06/28 10:14:06;;;;;;;5.35;3.10;;;;;;;30.61;55.06;100549.78;5192828;28;20032;-78
2021/06/28 10:16:38;;;;;;;3.33;3.03;;;;;;;31.11;55.52;100554.34;5194082;28;20037;-78
2021/06/28 10:19:10;;;;;;;4.20;3.10;;;;;;;31.26;56.58;100551.63;5190037;28;20060;-78
2021/06/28 10:21:40;;;;;;;5.32;3.30;;;;;;;30.83;56.41;100553.25;5193587;28;20022;-77
2021/06/28 10:24:10;;;;;;;7.07;3.63;;;;;;;30.54;57.82;100555.03;5194761;28;20032;-78
2021/06/28 10:26:41;;;;;;;7.15;3.80;;;;;;;30.63;58.49;100555.81;5189527;28;20277;-77
2021/06/28 10:29:12;;;;;;;6.07;3.80;;;;;;;30.84;61.16;100546.00;5183166;28;20026;-78
2021/06/28 10:31:42;;;;;;;5.22;3.50;;;;;;;30.73;58.75;100542.88;5182919;28;20032;-77
2021/06/28 10:34:13;;;;;;;6.20;3.60;;;;;;;30.43;58.61;100535.75;5194805;28;20028;-78
2021/06/28 10:36:45;;;;;;;6.88;3.90;;;;;;;30.03;58.81;100547.69;5192324;28;20284;-77
2021/06/28 10:39:26;;;;;;;6.22;3.50;;;;;;;30.53;58.95;100537.16;5194274;28;20021;-77
2021/06/28 10:42:02;;;;;;;4.85;3.72;;;;;;;30.37;58.75;100534.59;5190427;28;20028;-77
2021/06/28 10:44:47;;;;;;;6.95;3.70;;;;;;;30.53;59.83;100539.84;5191714;28;20030;-77
2021/06/28 10:47:17;;;;;;;4.82;3.55;;;;;;;30.51;59.48;100533.81;5190550;28;20026;-77
2021/06/28 10:49:50;;;;;;;5.38;3.80;;;;;;;29.78;59.12;100529.94;5186101;28;20032;-77
2021/06/28 10:52:36;;;;;;;5.05;3.80;;;;;;;30.11;61.27;100534.13;5190925;28;20026;-78
2021/06/28 10:55:19;;;;;;;5.85;3.60;;;;;;;30.24;59.71;100522.75;5194457;28;20032;-78
2021/06/28 10:57:53;;;;;;;8.05;3.95;;;;;;;30.63;60.87;100528.84;5187754;28;20526;-77
2021/06/28 11:00:53;;;;;;;6.00;4.10;;;;;;;30.63;60.17;100523.44;5195146;28;20075;-78
2021/06/28 11:03:23;;;;;;;7.57;3.80;;;;;;;30.43;60.24;100524.94;5187393;28;20141;-78
2021/06/28 11:06:13;;;;;;;6.53;3.90;;;;;;;30.42;58.21;100516.00;5195433;28;20026;-77
2021/06/28 11:08:59;;;;;;;6.85;3.92;;;;;;;30.72;58.54;100503.41;5196061;28;20299;-78
2021/06/28 11:11:45;;;;;;;6.75;3.97;;;;;;;30.86;58.97;100506.16;5190357;28;20042;-78
2021/06/28 11:14:18;;;;;;;8.45;3.70;;;;;;;30.57;62.02;100508.78;5187795;28;20033;-78
2021/06/28 11:17:16;;;;;;;5.78;3.40;;;;;;;30.34;60.37;100509.84;5187492;28;20025;-77
2021/06/28 11:19:54;;;;;;;4.05;3.38;;;;;;;30.67;60.34;100511.25;5190117;28;20031;-77
2021/06/28 11:22:27;;;;;;;5.35;3.25;;;;;;;30.91;61.67;100501.88;5197858;28;20462;-78
2021/06/28 11:25:10;;;;;;;6.03;3.38;;;;;;;30.48;60.52;100511.72;5194606;28;20053;-77
2021/06/28 11:27:44;;;;;;;6.47;3.50;;;;;;;30.90;66.00;100513.69;5195583;28;20026;-78
2021/06/28 11:30:15;;;;;;;7.07;3.30;;;;;;;30.92;63.27;100508.94;5196978;28;20261;-78
2021/06/28 11:33:09;;;;;;;4.37;3.10;;;;;;;30.89;60.80;100520.09;5189167;28;20280;-78
2021/06/28 11:35:42;;;;;;;5.10;3.30;;;;;;;30.71;59.83;100515.22;5187857;28;20021;-78
2021/06/28 11:38:15;;;;;;;7.13;3.65;;;;;;;30.60;59.73;100510.31;5194053;28;20314;-77
2021/06/28 11:40:57;;;;;;;7.45;3.08;;;;;;;30.69;59.93;100506.50;5203221;28;20052;-78
2021/06/28 11:43:40;;;;;;;3.60;3.17;;;;;;;30.72;60.32;100516.91;5198496;28;20029;-78
2021/06/28 11:46:16;;;;;;;5.47;2.95;;;;;;;30.42;58.58;100516.00;5194980;28;20025;-78